Time;durP1;ratioP1;P1;durP2;ratioP2;P2;SDS_P1;SDS_P2;PMS_P1;PMS_P2;Temp;Humidity;BMP_temperature;BMP_pressure;BME280_temperature;BME280_humidity;BME280_pressure;Samples;Min_cycle;Max_cycle;Signal;HPM_P1;HPM_P2
2022/07/08 00:01:44;;;;;;;4.57;3.33;;;15.60;90.60;;;;;;5066264;28;20993;-48
2022/07/08 00:04:11;;;;;;;3.80;3.50;;;15.40;90.50;;;;;;5066600;28;21093;-49
2022/07/08 00:06:37;;;;;;;2.90;2.70;;;15.40;90.70;;;;;;5063209;28;21023;-49
2022/07/08 00:09:05;;;;;;;3.47;3.27;;;15.30;90.40;;;;;;5065438;28;20474;-48
2022/07/08 00:11:31;;;;;;;4.50;4.10;;;15.20;91.20;;;;;;5057109;28;20492;-49
2022/07/08 00:13:59;;;;;;;6.30;3.50;;;15.00;91.90;;;;;;5053299;28;20479;-48
2022/07/08 00:16:26;;;;;;;5.00;4.37;;;14.90;92.40;;;;;;5049177;28;20478;-48
2022/07/08 00:18:53;;;;;;;5.63;3.67;;;14.70;92.60;;;;;;5055330;28;20471;-48
2022/07/08 00:21:20;;;;;;;3.80;3.40;;;14.70;92.70;;;;;;5054692;28;20502;-48
2022/07/08 00:23:47;;;;;;;5.30;3.70;;;14.70;92.30;;;;;;5053378;28;20904;-48
2022/07/08 00:26:14;;;;;;;6.93;3.50;;;14.80;91.90;;;;;;5051068;28;20482;-48
2022/07/08 00:28:40;;;;;;;6.27;3.10;;;14.80;91.60;;;;;;5060072;28;20478;-49
2022/07/08 00:31:08;;;;;;;4.67;2.63;;;14.80;91.30;;;;;;5063072;28;20478;-48
2022/07/08 00:33:35;;;;;;;3.87;3.50;;;14.80;91.10;;;;;;5032459;28;20528;-48
2022/07/08 00:36:02;;;;;;;3.57;3.27;;;14.80;91.00;;;;;;5059504;28;20482;-48
2022/07/08 00:38:28;;;;;;;4.73;4.33;;;14.80;91.40;;;;;;5058197;28;20501;-48
2022/07/08 00:40:55;;;;;;;6.47;3.90;;;14.70;90.80;;;;;;5056625;28;21278;-48
2022/07/08 00:43:34;;;;;;;5.67;3.40;;;14.50;90.60;;;;;;5058770;28;20478;-48
2022/07/08 00:46:01;;;;;;;4.10;3.70;;;14.50;90.80;;;;;;5052662;28;20494;-48
2022/07/08 00:48:29;;;;;;;3.77;3.23;;;14.50;90.90;;;;;;5065285;28;20489;-48
2022/07/08 00:50:58;;;;;;;4.30;3.33;;;14.30;90.90;;;;;;5057611;28;20483;-48
2022/07/08 00:53:25;;;;;;;4.23;3.30;;;14.20;90.90;;;;;;5054961;28;20486;-48
2022/07/08 00:55:53;;;;;;;2.50;2.30;;;14.20;91.00;;;;;;5056374;28;20493;-48
2022/07/08 00:58:20;;;;;;;4.00;3.60;;;14.10;91.10;;;;;;5055564;28;20830;-48
2022/07/08 01:00:47;;;;;;;4.00;3.40;;;13.60;91.70;;;;;;5051657;28;20983;-48
2022/07/08 01:03:14;;;;;;;4.00;3.70;;;13.40;92.90;;;;;;5059357;28;20502;-48
2022/07/08 01:05:42;;;;;;;4.37;3.03;;;13.30;93.70;;;;;;5056954;28;20475;-53
2022/07/08 01:08:09;;;;;;;3.70;3.00;;;13.30;93.60;;;;;;5057824;28;20482;-48
2022/07/08 01:10:36;;;;;;;3.53;3.23;;;13.30;93.20;;;;;;5055271;28;20862;-49
2022/07/08 01:13:03;;;;;;;4.60;3.70;;;13.40;92.20;;;;;;5061786;28;20482;-48
2022/07/08 01:15:31;;;;;;;6.20;4.60;;;13.30;92.70;;;;;;5058498;28;21248;-48
2022/07/08 01:17:58;;;;;;;5.20;3.77;;;;;;;;;;5053136;28;20959;-48
2022/07/08 01:20:24;;;;;;;9.40;4.33;;;13.20;92.60;;;;;;5058639;28;20485;-48
2022/07/08 01:22:53;;;;;;;4.53;3.40;;;13.20;92.80;;;;;;5054716;28;20502;-48
2022/07/08 01:25:19;;;;;;;8.90;3.40;;;13.10;92.10;;;;;;5045669;28;21382;-48
2022/07/08 01:27:46;;;;;;;7.53;3.83;;;13.00;92.10;;;;;;5059012;28;20474;-48
2022/07/08 01:30:13;;;;;;;3.37;3.07;;;13.00;92.30;;;;;;5059226;28;20535;-48
2022/07/08 01:32:41;;;;;;;5.00;2.30;;;13.00;92.00;;;;;;5056611;28;20493;-48
2022/07/08 01:35:08;;;;;;;3.90;2.67;;;13.00;91.80;;;;;;5056888;28;20779;-48
2022/07/08 01:37:35;;;;;;;3.67;3.20;;;12.90;91.60;;;;;;5056679;28;20549;-48
2022/07/08 01:40:04;;;;;;;3.43;3.00;;;12.90;91.40;;;;;;5052265;28;20491;-48
2022/07/08 01:42:31;;;;;;;3.20;2.70;;;12.90;91.40;;;;;;5046610;28;20902;-48
2022/07/08 01:44:57;;;;;;;3.70;2.70;;;13.00;91.40;;;;;;5062529;28;20998;-48
2022/07/08 01:47:24;;;;;;;3.43;3.13;;;12.90;91.40;;;;;;5053471;28;20482;-48
2022/07/08 01:49:51;;;;;;;6.47;2.47;;;12.90;91.20;;;;;;5045549;28;20491;-49
2022/07/08 01:52:17;;;;;;;3.27;2.90;;;12.70;91.10;;;;;;5049697;28;20476;-48
2022/07/08 01:54:44;;;;;;;7.27;3.07;;;12.60;91.60;;;;;;5055224;28;20494;-48
2022/07/08 01:57:15;;;;;;;7.93;3.20;;;12.40;92.30;;;;;;5056856;28;20516;-48
2022/07/08 01:59:42;;;;;;;3.57;2.80;;;12.30;91.90;;;;;;5057833;28;21029;-48
2022/07/08 02:02:08;;;;;;;5.03;2.80;;;12.20;92.00;;;;;;5050807;28;20609;-48
2022/07/08 02:04:35;;;;;;;7.20;3.40;;;12.10;91.90;;;;;;5059829;28;21050;-48
2022/07/08 02:07:02;;;;;;;6.17;2.87;;;12.00;92.30;;;;;;5056174;28;20994;-48
2022/07/08 02:09:29;;;;;;;9.33;4.53;;;11.90;92.80;;;;;;5055146;28;21015;-48
2022/07/08 02:14:42;;;;;;;5.17;4.13;;;12.00;92.40;;;;;;5053316;28;20498;-48
2022/07/08 02:17:09;;;;;;;2.60;2.33;;;12.10;92.00;;;;;;5056695;28;21075;-48
2022/07/08 02:19:36;;;;;;;6.73;3.17;;;12.10;91.80;;;;;;5053661;28;20593;-48
2022/07/08 02:22:03;;;;;;;2.70;2.50;;;12.10;91.70;;;;;;5060869;28;20877;-48
2022/07/08 02:24:30;;;;;;;4.60;4.00;;;12.10;91.90;;;;;;5056908;28;20492;-48
2022/07/08 02:26:57;;;;;;;3.87;2.67;;;12.00;91.80;;;;;;5055741;28;20477;-48
2022/07/08 02:29:23;;;;;;;5.60;3.00;;;12.00;92.60;;;;;;5055848;28;20561;-48
2022/07/08 02:31:51;;;;;;;2.93;2.40;;;12.00;92.40;;;;;;5057743;28;20485;-49
2022/07/08 02:34:18;;;;;;;3.37;2.60;;;12.00;91.90;;;;;;5057820;28;20481;-48
2022/07/08 02:36:45;;;;;;;4.00;3.30;;;12.00;91.70;;;;;;5045132;28;20507;-48
2022/07/08 02:39:12;;;;;;;2.47;2.27;;;11.90;91.50;;;;;;5056662;28;20469;-48
2022/07/08 02:41:39;;;;;;;4.80;2.67;;;11.80;91.10;;;;;;5053770;28;20797;-48
2022/07/08 02:44:06;;;;;;;3.00;2.80;;;11.80;91.20;;;;;;5056294;28;20474;-48
2022/07/08 02:46:33;;;;;;;4.63;2.90;;;11.80;91.50;;;;;;5053874;28;20478;-48
2022/07/08 02:49:01;;;;;;;5.53;2.43;;;11.80;91.50;;;;;;5054155;28;20492;-48
2022/07/08 02:51:28;;;;;;;6.37;3.03;;;11.80;91.60;;;;;;5055680;28;20844;-48
2022/07/08 02:53:55;;;;;;;7.83;3.03;;;11.80;91.30;;;;;;5052782;28;20474;-48
2022/07/08 02:56:22;;;;;;;7.67;3.50;;;11.70;91.20;;;;;;5047561;28;20544;-49
2022/07/08 02:58:48;;;;;;;5.00;2.53;;;11.40;91.50;;;;;;5048776;28;20492;-48
2022/07/08 03:01:15;;;;;;;6.43;2.40;;;11.40;91.30;;;;;;5046921;28;20501;-48
2022/07/08 03:03:42;;;;;;;3.50;2.77;;;11.40;91.30;;;;;;5060810;28;20510;-48
2022/07/08 03:06:10;;;;;;;3.63;3.33;;;11.20;91.30;;;;;;5050764;28;20484;-49
2022/07/08 03:08:36;;;;;;;3.07;2.77;;;11.20;91.50;;;;;;5056756;28;20490;-48
2022/07/08 03:11:03;;;;;;;5.67;2.63;;;11.20;91.50;;;;;;5056901;28;20491;-47
2022/07/08 03:13:30;;;;;;;4.80;2.97;;;11.20;91.50;;;;;;5049487;28;20476;-47
2022/07/08 03:15:57;;;;;;;5.03;2.23;;;11.20;91.30;;;;;;5053590;28;20505;-48
2022/07/08 03:18:24;;;;;;;4.80;3.20;;;11.10;91.40;;;;;;5052590;28;20631;-48
2022/07/08 03:20:51;;;;;;;4.00;3.60;;;11.10;91.30;;;;;;5058615;28;20833;-47
2022/07/08 03:23:19;;;;;;;6.37;2.97;;;11.10;91.30;;;;;;5057293;28;20480;-47
2022/07/08 03:25:45;;;;;;;3.40;3.10;;;11.10;91.20;;;;;;5060908;28;20488;-48
2022/07/08 03:28:12;;;;;;;4.40;3.10;;;11.10;90.90;;;;;;5061484;28;20477;-48
2022/07/08 03:30:39;;;;;;;3.23;2.43;;;11.10;91.20;;;;;;5058000;28;20480;-48
2022/07/08 03:33:06;;;;;;;3.17;2.87;;;11.00;90.80;;;;;;5058022;28;20472;-47
2022/07/08 03:35:33;;;;;;;3.70;3.40;;;10.90;91.10;;;;;;5052603;28;20476;-48
2022/07/08 03:38:00;;;;;;;2.90;2.23;;;10.60;92.70;;;;;;5056364;28;20493;-48
2022/07/08 03:43:12;;;;;;;9.30;3.03;;;10.40;92.80;;;;;;5058329;28;20553;-48
2022/07/08 03:45:39;;;;;;;4.23;3.50;;;10.40;92.70;;;;;;5058166;28;20489;-48
2022/07/08 03:48:06;;;;;;;5.23;2.90;;;;;;;;;;5056678;28;20509;-48
2022/07/08 03:50:33;;;;;;;4.70;3.80;;;10.30;93.40;;;;;;5057002;28;20474;-48
2022/07/08 03:52:59;;;;;;;3.73;3.10;;;10.30;93.20;;;;;;5060762;28;20872;-48
2022/07/08 03:55:27;;;;;;;3.87;3.57;;;10.40;93.20;;;;;;5066584;28;20494;-49
2022/07/08 03:57:54;;;;;;;9.50;2.27;;;10.40;94.00;;;;;;5063577;28;20964;-48
2022/07/08 04:00:21;;;;;;;6.17;2.80;;;10.30;94.40;;;;;;5062929;28;20477;-48
2022/07/08 04:02:49;;;;;;;7.00;3.47;;;;;;;;;;5033199;28;20484;-48
2022/07/08 04:05:16;;;;;;;4.60;2.70;;;10.10;93.80;;;;;;5049719;28;20486;-48
2022/07/08 04:07:42;;;;;;;4.87;2.60;;;10.20;93.40;;;;;;5056292;28;20511;-48
2022/07/08 04:10:10;;;;;;;7.20;2.97;;;;;;;;;;5054962;28;20487;-48
2022/07/08 04:12:38;;;;;;;6.30;3.20;;;9.90;93.90;;;;;;5056418;28;20487;-48
2022/07/08 04:15:06;;;;;;;3.60;2.83;;;9.80;95.10;;;;;;5053234;28;20485;-48
2022/07/08 04:17:32;;;;;;;4.67;4.23;;;9.80;96.60;;;;;;5055366;28;21004;-48
2022/07/08 04:19:59;;;;;;;6.90;3.67;;;9.90;96.60;;;;;;5055552;28;20496;-48
2022/07/08 04:22:26;;;;;;;4.53;3.60;;;10.00;95.70;;;;;;5058710;28;20491;-48
2022/07/08 04:24:52;;;;;;;4.53;2.90;;;10.20;94.60;;;;;;5060601;28;21021;-48
2022/07/08 04:27:19;;;;;;;3.50;3.20;;;10.30;94.20;;;;;;5058230;28;20494;-48
2022/07/08 04:29:47;;;;;;;13.50;2.63;;;10.40;94.10;;;;;;5058950;28;20501;-48
2022/07/08 04:32:14;;;;;;;3.60;2.53;;;10.40;93.90;;;;;;5050716;28;20486;-48
2022/07/08 04:34:40;;;;;;;4.80;3.33;;;10.50;94.00;;;;;;5058008;28;21013;-48
2022/07/08 04:37:07;;;;;;;3.60;3.10;;;10.60;94.00;;;;;;5057724;28;20815;-48
2022/07/08 04:39:34;;;;;;;4.90;4.40;;;10.60;94.00;;;;;;5057951;28;21377;-49
2022/07/08 04:42:00;;;;;;;6.83;2.93;;;10.70;94.30;;;;;;5058482;28;20480;-48
2022/07/08 04:44:27;;;;;;;9.17;3.87;;;10.70;94.40;;;;;;5056390;28;20487;-48
2022/07/08 04:46:55;;;;;;;4.17;3.40;;;10.80;94.20;;;;;;5061895;28;20843;-48
2022/07/08 04:49:23;;;;;;;4.33;3.40;;;10.70;94.70;;;;;;5061802;28;20490;-48
2022/07/08 04:51:50;;;;;;;6.60;3.17;;;10.70;95.30;;;;;;5059657;28;20487;-48
2022/07/08 04:54:16;;;;;;;5.70;3.30;;;10.80;95.10;;;;;;5057998;28;21014;-48
2022/07/08 04:56:43;;;;;;;9.80;3.67;;;10.90;95.40;;;;;;5058246;28;20483;-48
2022/07/08 04:59:10;;;;;;;4.70;4.20;;;11.00;95.80;;;;;;5059310;28;20493;-48
2022/07/08 05:01:36;;;;;;;10.87;3.67;;;11.20;96.00;;;;;;5056433;28;20995;-48
2022/07/08 05:04:05;;;;;;;6.53;3.87;;;11.50;96.30;;;;;;5059749;28;20474;-48
2022/07/08 05:06:32;;;;;;;6.53;5.33;;;11.70;96.30;;;;;;5030568;28;20518;-48
2022/07/08 05:08:58;;;;;;;8.40;4.47;;;12.00;96.20;;;;;;5061427;28;21003;-48
2022/07/08 05:11:25;;;;;;;5.97;4.77;;;12.20;95.90;;;;;;5059387;28;20858;-48
2022/07/08 05:13:52;;;;;;;5.67;3.17;;;12.40;95.40;;;;;;5057556;28;20484;-49
2022/07/08 05:16:19;;;;;;;4.47;4.10;;;12.40;95.30;;;;;;5054585;28;21080;-48
2022/07/08 05:18:45;;;;;;;11.57;4.00;;;12.50;95.50;;;;;;5055905;28;20592;-48
2022/07/08 05:21:13;;;;;;;5.13;3.53;;;12.60;95.40;;;;;;5054076;28;20473;-48
2022/07/08 05:23:40;;;;;;;7.13;3.83;;;12.80;95.40;;;;;;5058807;28;20475;-48
2022/07/08 05:26:07;;;;;;;8.83;4.43;;;12.90;95.30;;;;;;5058429;28;20517;-49
2022/07/08 05:28:33;;;;;;;6.17;4.30;;;13.00;95.30;;;;;;5051001;28;21049;-48
2022/07/08 05:31:00;;;;;;;7.83;3.90;;;13.20;95.40;;;;;;5057898;28;20842;-48
2022/07/08 05:33:27;;;;;;;6.37;4.73;;;13.30;95.60;;;;;;5056191;28;20485;-48
2022/07/08 05:35:54;;;;;;;4.47;3.30;;;13.50;95.40;;;;;;5042972;28;20493;-48
2022/07/08 05:38:22;;;;;;;6.10;4.20;;;13.70;95.20;;;;;;5051647;28;20486;-48
2022/07/08 05:40:49;;;;;;;11.60;4.43;;;13.80;95.30;;;;;;5057560;28;20494;-49
2022/07/08 05:43:15;;;;;;;5.97;3.93;;;14.00;95.20;;;;;;5054267;28;20797;-48
2022/07/08 05:45:42;;;;;;;7.93;3.80;;;14.10;95.20;;;;;;5057050;28;20477;-48
2022/07/08 05:48:09;;;;;;;6.23;3.50;;;14.30;94.50;;;;;;5056109;28;21060;-49
2022/07/08 05:50:35;;;;;;;11.03;4.70;;;14.40;94.10;;;;;;5061826;28;20486;-48
2022/07/08 05:53:02;;;;;;;3.97;3.40;;;14.50;94.30;;;;;;5049082;28;20505;-48
2022/07/08 05:55:30;;;;;;;14.00;4.47;;;14.60;94.70;;;;;;5045786;28;20487;-48
2022/07/08 05:57:57;;;;;;;5.93;3.47;;;14.70;94.60;;;;;;5059353;28;21043;-48
2022/07/08 06:00:23;;;;;;;5.30;2.93;;;14.80;94.40;;;;;;5059651;28;20493;-48
2022/07/08 06:02:50;;;;;;;12.90;3.27;;;15.00;94.20;;;;;;5060938;28;20498;-48
2022/07/08 06:05:17;;;;;;;8.83;3.90;;;15.00;94.60;;;;;;5060390;28;21005;-51
2022/07/08 06:07:44;;;;;;;3.07;2.70;;;15.20;94.30;;;;;;5056464;28;20489;-49
2022/07/08 06:10:10;;;;;;;9.37;3.90;;;15.30;93.70;;;;;;5056760;28;20543;-48
2022/07/08 06:12:38;;;;;;;9.60;4.23;;;15.40;93.90;;;;;;5057358;28;20481;-48
2022/07/08 06:15:06;;;;;;;14.03;3.00;;;15.60;94.20;;;;;;5045624;28;20489;-48
2022/07/08 06:17:33;;;;;;;8.30;4.10;;;15.90;93.30;;;;;;5053802;28;20494;-49
2022/07/08 06:20:00;;;;;;;8.23;2.50;;;16.00;93.00;;;;;;5061537;28;20871;-48
2022/07/08 06:22:27;;;;;;;7.50;3.30;;;;;;;;;;5053771;28;20499;-48
2022/07/08 06:24:55;;;;;;;9.37;2.57;;;16.50;92.50;;;;;;5055288;28;20482;-48
2022/07/08 06:27:21;;;;;;;9.63;3.30;;;16.60;92.00;;;;;;5054114;28;21006;-48
2022/07/08 06:29:49;;;;;;;7.33;2.53;;;16.80;91.40;;;;;;5059852;28;20490;-49
2022/07/08 06:32:16;;;;;;;8.70;3.00;;;16.90;92.20;;;;;;5055955;28;20493;-48
2022/07/08 06:34:44;;;;;;;7.93;3.33;;;17.00;91.20;;;;;;5045007;28;20483;-48
2022/07/08 06:37:11;;;;;;;11.30;3.43;;;17.20;91.30;;;;;;5056410;28;20491;-49
2022/07/08 06:39:37;;;;;;;9.50;3.53;;;17.40;91.00;;;;;;5060552;28;20482;-48
2022/07/08 06:42:05;;;;;;;9.13;4.30;;;17.50;90.70;;;;;;5062135;28;20470;-48
2022/07/08 06:44:32;;;;;;;6.93;3.70;;;17.80;90.50;;;;;;5052553;28;20482;-48
2022/07/08 06:47:00;;;;;;;8.43;3.37;;;17.90;89.30;;;;;;5054650;28;20490;-49
2022/07/08 06:49:27;;;;;;;8.70;3.63;;;18.00;89.10;;;;;;5049457;28;20487;-48
2022/07/08 06:51:53;;;;;;;8.90;3.23;;;18.20;87.80;;;;;;5049371;28;21014;-49
2022/07/08 06:54:35;;;;;;;6.00;3.30;;;18.30;87.20;;;;;;5060398;28;20478;-48
2022/07/08 06:57:02;;;;;;;7.43;3.47;;;18.40;87.90;;;;;;5056260;28;20470;-48
2022/07/08 06:59:29;;;;;;;16.70;4.13;;;18.60;85.30;;;;;;5056606;28;20482;-48
2022/07/08 07:01:56;;;;;;;4.87;3.47;;;18.70;86.20;;;;;;5058830;28;20777;-48
2022/07/08 07:04:24;;;;;;;5.83;3.63;;;18.90;84.20;;;;;;5055672;28;20494;-48
2022/07/08 07:06:50;;;;;;;10.20;3.83;;;19.10;83.70;;;;;;5054325;28;20498;-48
2022/07/08 07:09:17;;;;;;;6.57;3.10;;;19.20;81.90;;;;;;5058601;28;20471;-48
2022/07/08 07:11:44;;;;;;;5.83;3.97;;;19.10;81.80;;;;;;5058518;28;21194;-49
2022/07/08 07:14:10;;;;;;;6.47;4.00;;;19.00;81.30;;;;;;5058367;28;20546;-48
2022/07/08 07:16:37;;;;;;;8.17;3.60;;;18.90;81.70;;;;;;5059210;28;20469;-48
2022/07/08 07:19:04;;;;;;;13.33;3.53;;;18.80;82.70;;;;;;5057220;28;20490;-48
2022/07/08 07:21:32;;;;;;;7.67;3.33;;;18.70;83.20;;;;;;5054828;28;21193;-48
2022/07/08 07:23:59;;;;;;;7.30;2.97;;;18.60;83.30;;;;;;5057118;28;20478;-48
2022/07/08 07:26:25;;;;;;;7.23;3.83;;;18.70;84.10;;;;;;5044667;28;20486;-48
2022/07/08 07:28:52;;;;;;;11.53;3.90;;;19.00;84.20;;;;;;5058453;28;20487;-48
2022/07/08 07:31:19;;;;;;;9.37;4.50;;;19.30;82.30;;;;;;5054723;28;20479;-48
2022/07/08 07:33:45;;;;;;;4.47;3.33;;;19.50;83.40;;;;;;5056525;28;20489;-48
2022/07/08 07:36:12;;;;;;;12.80;3.90;;;20.10;81.80;;;;;;5058924;28;20535;-48
2022/07/08 07:38:40;;;;;;;5.03;3.07;;;20.30;77.80;;;;;;5053112;28;20479;-48
2022/07/08 07:41:07;;;;;;;7.60;2.87;;;20.50;78.10;;;;;;5058646;28;20893;-48
2022/07/08 07:43:34;;;;;;;7.80;3.60;;;20.80;77.70;;;;;;5052555;28;20486;-48
2022/07/08 07:46:01;;;;;;;5.60;3.57;;;20.90;77.00;;;;;;5058927;28;20475;-48
2022/07/08 07:48:27;;;;;;;9.73;3.50;;;21.00;76.60;;;;;;5055376;28;20487;-48
2022/07/08 07:50:54;;;;;;;5.30;2.80;;;20.90;76.20;;;;;;5056536;28;21191;-48
2022/07/08 07:53:21;;;;;;;7.07;2.90;;;20.80;76.30;;;;;;5055411;28;20489;-48
2022/07/08 07:55:49;;;;;;;8.23;4.67;;;20.60;76.00;;;;;;5054364;28;20823;-49
2022/07/08 07:58:15;;;;;;;8.23;3.47;;;20.50;76.10;;;;;;5053585;28;20566;-49
2022/07/08 08:00:42;;;;;;;3.37;3.03;;;20.30;76.50;;;;;;5057871;28;20480;-48
2022/07/08 08:03:09;;;;;;;5.20;3.07;;;20.20;77.20;;;;;;5055606;28;20842;-48
2022/07/08 08:05:36;;;;;;;10.00;4.60;;;20.20;77.80;;;;;;5054128;28;20480;-48
2022/07/08 08:08:02;;;;;;;7.50;3.60;;;20.20;78.10;;;;;;5056120;28;20482;-48
2022/07/08 08:10:29;;;;;;;4.87;3.47;;;20.30;77.20;;;;;;5061459;28;20895;-48
2022/07/08 08:12:57;;;;;;;6.67;3.30;;;20.60;76.80;;;;;;5060074;28;20561;-48
2022/07/08 08:15:29;;;;;;;8.13;3.20;;;20.70;77.10;;;;;;5057040;28;20483;-49
2022/07/08 08:17:56;;;;;;;4.83;2.80;;;20.70;76.30;;;;;;5061495;28;20481;-49
2022/07/08 08:20:24;;;;;;;6.57;3.60;;;21.00;75.30;;;;;;5051044;28;20493;-48
2022/07/08 08:22:51;;;;;;;10.30;4.00;;;21.00;76.10;;;;;;5046890;28;21058;-50
2022/07/08 08:25:18;;;;;;;5.13;3.43;;;21.10;77.00;;;;;;5066132;28;20474;-49
2022/07/08 08:27:45;;;;;;;6.00;3.30;;;21.40;76.20;;;;;;5050754;28;21489;-48
2022/07/08 08:30:14;;;;;;;13.33;3.37;;;21.50;75.40;;;;;;5058642;28;20482;-49
2022/07/08 08:32:40;;;;;;;5.33;3.47;;;22.00;76.80;;;;;;5058434;28;20906;-49
2022/07/08 08:35:08;;;;;;;11.97;3.53;;;22.20;75.60;;;;;;5055483;28;21046;-49
2022/07/08 08:37:36;;;;;;;5.70;3.20;;;22.30;76.60;;;;;;5055993;28;20494;-49
2022/07/08 08:40:03;;;;;;;8.70;2.30;;;22.60;74.10;;;;;;5055999;28;20514;-48
2022/07/08 08:42:32;;;;;;;5.60;2.70;;;22.90;74.10;;;;;;5058524;28;20858;-48
2022/07/08 08:44:59;;;;;;;5.70;3.20;;;22.90;73.30;;;;;;5056932;28;20489;-49
2022/07/08 08:47:29;;;;;;;12.97;3.30;;;22.90;71.60;;;;;;5055724;28;20478;-50
2022/07/08 08:49:57;;;;;;;7.10;3.13;;;22.70;71.60;;;;;;5044282;28;20482;-49
2022/07/08 08:52:24;;;;;;;7.30;3.53;;;22.50;71.90;;;;;;5054900;28;20498;-49
2022/07/08 08:54:53;;;;;;;8.30;2.90;;;22.30;72.20;;;;;;5051862;28;20488;-49
2022/07/08 08:57:20;;;;;;;11.27;4.40;;;22.30;73.10;;;;;;5045838;28;20485;-49
2022/07/08 08:59:47;;;;;;;4.80;3.17;;;22.20;72.10;;;;;;5045280;28;20574;-51
2022/07/08 09:02:14;;;;;;;8.80;3.03;;;22.30;71.30;;;;;;5060924;28;20985;-48
2022/07/08 09:04:42;;;;;;;6.30;3.10;;;22.30;71.10;;;;;;5054029;28;20987;-49
2022/07/08 09:07:09;;;;;;;8.70;3.83;;;22.20;70.60;;;;;;5057322;28;20482;-49
2022/07/08 09:09:35;;;;;;;5.13;3.20;;;22.30;71.50;;;;;;5056461;28;20491;-49
2022/07/08 09:12:17;;;;;;;3.53;3.03;;;22.60;73.10;;;;;;5056427;28;20484;-49
2022/07/08 09:14:50;;;;;;;9.30;3.50;;;23.00;71.60;;;;;;5059632;28;20471;-49
2022/07/08 09:17:17;;;;;;;5.80;3.27;;;23.00;72.30;;;;;;5029719;28;20553;-50
2022/07/08 09:19:48;;;;;;;7.07;3.40;;;23.50;72.00;;;;;;5057740;28;20474;-48
2022/07/08 09:22:16;;;;;;;10.23;3.30;;;23.80;70.30;;;;;;5044010;28;20483;-49
2022/07/08 09:24:44;;;;;;;5.27;3.13;;;23.80;68.70;;;;;;5054386;28;20474;-48
2022/07/08 09:27:12;;;;;;;4.23;2.70;;;23.60;69.00;;;;;;5040750;28;20994;-50
2022/07/08 09:29:40;;;;;;;4.93;3.10;;;23.50;69.50;;;;;;5044776;28;21024;-49
2022/07/08 09:32:12;;;;;;;5.10;3.60;;;23.10;68.50;;;;;;5050629;28;20480;-49
2022/07/08 09:34:39;;;;;;;3.50;3.20;;;23.10;70.90;;;;;;5050908;28;20476;-50
2022/07/08 09:37:18;;;;;;;4.10;3.57;;;23.10;71.20;;;;;;5053714;28;20991;-49
2022/07/08 09:39:45;;;;;;;4.47;3.47;;;23.20;69.30;;;;;;5045205;28;21166;-49
2022/07/08 09:42:14;;;;;;;5.40;3.30;;;23.20;68.20;;;;;;5056575;28;20475;-49
2022/07/08 09:44:41;;;;;;;6.23;3.17;;;23.40;69.00;;;;;;5052447;28;20589;-50
2022/07/08 09:47:11;;;;;;;4.83;3.40;;;23.60;70.80;;;;;;5057021;28;20475;-49
2022/07/08 09:49:41;;;;;;;5.50;2.87;;;23.70;69.20;;;;;;5056469;28;20571;-49
2022/07/08 09:52:09;;;;;;;6.03;3.10;;;23.90;70.50;;;;;;5055826;28;20515;-49
2022/07/08 09:54:37;;;;;;;7.80;4.80;;;24.20;71.30;;;;;;5054371;28;21009;-50
2022/07/08 09:57:07;;;;;;;4.87;3.13;;;24.40;71.10;;;;;;5057162;28;20484;-50
2022/07/08 09:59:35;;;;;;;3.67;2.63;;;24.60;69.30;;;;;;5060554;28;20832;-49
2022/07/08 10:02:02;;;;;;;6.70;3.03;;;24.90;66.40;;;;;;5054570;28;20481;-49
2022/07/08 10:04:29;;;;;;;4.00;3.40;;;24.80;63.50;;;;;;5058897;28;20493;-49
2022/07/08 10:06:58;;;;;;;7.90;3.10;;;24.90;68.10;;;;;;5051776;28;20722;-49
2022/07/08 10:09:26;;;;;;;8.13;3.40;;;25.10;67.60;;;;;;5050074;28;20490;-49
2022/07/08 10:11:54;;;;;;;4.60;2.90;;;25.00;65.80;;;;;;5020274;28;20482;-49
2022/07/08 10:14:22;;;;;;;6.97;3.60;;;25.10;67.90;;;;;;5055504;28;20479;-48
2022/07/08 10:16:50;;;;;;;6.47;3.10;;;25.20;67.40;;;;;;5043473;28;20486;-49
2022/07/08 10:19:21;;;;;;;4.60;2.57;;;25.20;64.80;;;;;;5056890;28;20691;-49
2022/07/08 10:21:51;;;;;;;5.20;3.50;;;25.30;66.50;;;;;;5061072;28;20501;-49
2022/07/08 10:24:23;;;;;;;4.40;3.00;;;25.50;65.50;;;;;;5047670;28;20482;-49
2022/07/08 10:26:50;;;;;;;11.50;3.50;;;25.50;63.90;;;;;;5050904;28;20563;-49
2022/07/08 10:29:18;;;;;;;9.17;2.47;;;25.40;65.80;;;;;;5060088;28;20816;-49
2022/07/08 10:31:47;;;;;;;6.57;3.27;;;25.50;65.80;;;;;;5061956;28;20475;-50
2022/07/08 10:34:17;;;;;;;3.40;2.47;;;25.30;63.10;;;;;;5063573;28;20499;-48
2022/07/08 10:36:49;;;;;;;3.70;2.20;;;25.40;66.90;;;;;;5057597;28;20482;-49
2022/07/08 10:39:25;;;;;;;3.17;2.87;;;25.40;62.90;;;;;;5057717;28;20988;-50
2022/07/08 10:41:59;;;;;;;8.10;3.33;;;25.50;63.70;;;;;;5045939;28;21316;-50
2022/07/08 10:44:52;;;;;;;5.23;3.10;;;25.60;65.00;;;;;;5031471;28;20478;-49
2022/07/08 10:47:28;;;;;;;7.57;3.40;;;25.60;63.10;;;;;;5054025;28;21003;-49
2022/07/08 10:50:03;;;;;;;4.93;2.70;;;25.50;61.80;;;;;;5055675;28;20948;-50
2022/07/08 10:52:33;;;;;;;8.30;3.20;;;25.70;65.40;;;;;;5047125;28;20481;-50
2022/07/08 10:55:09;;;;;;;4.37;2.60;;;25.70;65.70;;;;;;5059722;28;21118;-52
2022/07/08 10:57:36;;;;;;;4.37;2.60;;;25.90;64.20;;;;;;5052792;28;20577;-51
2022/07/08 11:00:08;;;;;;;4.20;2.40;;;25.90;64.00;;;;;;5059410;28;20560;-50
2022/07/08 11:02:41;;;;;;;3.83;2.70;;;26.00;62.70;;;;;;5048686;28;20886;-50
2022/07/08 11:05:08;;;;;;;10.57;2.90;;;26.20;62.80;;;;;;5057305;28;20830;-49
2022/07/08 11:07:35;;;;;;;7.20;3.60;;;26.40;63.00;;;;;;5054279;28;20486;-49
2022/07/08 11:10:07;;;;;;;5.10;2.57;;;26.40;63.10;;;;;;5062892;28;20485;-50
2022/07/08 11:12:35;;;;;;;7.50;3.03;;;26.30;61.70;;;;;;5044466;28;20494;-50
2022/07/08 11:15:04;;;;;;;8.90;3.20;;;26.30;63.00;;;;;;5057595;28;20875;-49
2022/07/08 11:17:34;;;;;;;3.83;2.90;;;26.40;62.40;;;;;;5061967;28;20494;-52
2022/07/08 11:20:04;;;;;;;3.17;2.90;;;26.30;60.50;;;;;;5057398;28;20518;-53
2022/07/08 11:22:34;;;;;;;7.53;3.60;;;26.40;61.80;;;;;;5055715;28;20980;-54
2022/07/08 11:25:02;;;;;;;7.60;2.70;;;26.40;61.90;;;;;;5048516;28;20544;-53
2022/07/08 11:27:31;;;;;;;7.07;3.07;;;26.50;62.20;;;;;;5062576;28;20480;-51
2022/07/08 11:29:58;;;;;;;4.87;2.37;;;26.40;60.30;;;;;;5057293;28;20855;-49
2022/07/08 11:32:26;;;;;;;8.00;2.37;;;26.40;60.40;;;;;;5050720;28;20490;-49
2022/07/08 11:34:55;;;;;;;5.33;2.73;;;26.40;61.20;;;;;;5051197;28;20486;-49
2022/07/08 11:37:22;;;;;;;5.10;2.77;;;26.50;60.40;;;;;;5044096;28;20473;-50
2022/07/08 11:39:50;;;;;;;3.60;2.20;;;26.70;63.00;;;;;;5056183;28;20474;-50
2022/07/08 11:42:17;;;;;;;4.23;3.17;;;26.80;59.50;;;;;;5056675;28;20838;-50
2022/07/08 11:44:45;;;;;;;9.23;2.60;;;26.80;60.00;;;;;;5059913;28;20482;-50
2022/07/08 11:47:15;;;;;;;7.23;2.30;;;26.80;59.80;;;;;;5059527;28;20478;-51
2022/07/08 11:49:43;;;;;;;6.63;2.47;;;27.00;60.70;;;;;;5058144;28;20577;-49
2022/07/08 11:52:11;;;;;;;2.80;2.13;;;27.00;60.40;;;;;;5059959;28;20486;-50
2022/07/08 11:54:38;;;;;;;3.93;2.80;;;27.00;60.00;;;;;;5058515;28;20494;-50
2022/07/08 11:57:06;;;;;;;4.03;2.87;;;27.10;60.00;;;;;;5060590;28;20493;-49
2022/07/08 11:59:36;;;;;;;5.83;2.50;;;27.40;59.20;;;;;;5060404;28;20474;-50
2022/07/08 12:02:05;;;;;;;3.03;2.60;;;27.60;59.60;;;;;;5029852;28;20501;-49
2022/07/08 12:04:32;;;;;;;4.80;2.70;;;27.70;60.30;;;;;;5034656;28;20482;-50
2022/07/08 12:07:00;;;;;;;4.10;2.40;;;27.70;58.70;;;;;;5060134;28;20489;-50
2022/07/08 12:09:30;;;;;;;4.90;2.70;;;27.70;58.90;;;;;;5057145;28;20492;-49
2022/07/08 12:11:59;;;;;;;4.67;2.80;;;27.80;58.60;;;;;;5058702;28;20477;-49
2022/07/08 12:14:32;;;;;;;6.20;2.80;;;27.80;58.20;;;;;;5052667;28;21015;-49
2022/07/08 12:16:58;;;;;;;10.00;3.10;;;27.90;60.30;;;;;;5038250;28;20909;-50
2022/07/08 12:19:30;;;;;;;6.93;3.43;;;27.80;57.90;;;;;;5038712;28;20466;-50
2022/07/08 12:21:59;;;;;;;3.93;2.70;;;27.90;59.30;;;;;;5052557;28;20457;-49
2022/07/08 12:24:28;;;;;;;5.63;2.77;;;27.90;58.00;;;;;;5055086;28;20938;-50
2022/07/08 12:26:57;;;;;;;7.00;3.20;;;28.10;58.90;;;;;;5055150;28;20490;-50
2022/07/08 12:29:24;;;;;;;2.87;2.60;;;28.30;59.90;;;;;;5049670;28;20494;-49
2022/07/08 12:31:50;;;;;;;2.80;2.60;;;28.40;59.20;;;;;;5058850;28;20942;-49
2022/07/08 12:34:19;;;;;;;4.53;3.33;;;28.20;56.80;;;;;;5059736;28;20485;-49
2022/07/08 12:36:46;;;;;;;3.30;2.70;;;27.90;56.60;;;;;;5057105;28;20487;-50
2022/07/08 12:39:17;;;;;;;5.67;3.63;;;27.90;58.70;;;;;;5062078;28;20509;-49
2022/07/08 12:41:58;;;;;;;2.97;2.63;;;28.00;58.20;;;;;;5055911;28;21019;-49
2022/07/08 12:44:29;;;;;;;4.97;3.17;;;28.10;57.40;;;;;;5058016;28;20578;-49
2022/07/08 12:46:56;;;;;;;5.13;3.47;;;28.00;56.10;;;;;;5057144;28;20478;-49
2022/07/08 12:49:24;;;;;;;5.33;3.33;;;28.00;57.10;;;;;;5055728;28;20521;-49
2022/07/08 12:51:51;;;;;;;6.00;3.47;;;28.00;56.60;;;;;;5053832;28;20483;-49
2022/07/08 12:54:18;;;;;;;5.37;3.37;;;28.00;57.40;;;;;;5058974;28;20478;-48
2022/07/08 12:56:47;;;;;;;3.57;3.27;;;28.00;56.70;;;;;;5058268;28;21550;-49